sensor_id;sensor_type;location;lat;lon;timestamp;pressure;altitude;pressure_sealevel;temperature;humidity
66560;BME280;53413;49.878;8.142;2023-03-23T00:02:02;99156.25;;;13.29;76.64
66560;BME280;53413;49.878;8.142;2023-03-23T00:04:27;99145.72;;;13.29;76.36
66560;BME280;53413;49.878;8.142;2023-03-23T00:06:54;99146.56;;;13.30;76.74
66560;BME280;53413;49.878;8.142;2023-03-23T00:09:19;99141.28;;;13.30;77.20
66560;BME280;53413;49.878;8.142;2023-03-23T00:11:50;99140.56;;;13.28;76.40
66560;BME280;53413;49.878;8.142;2023-03-23T00:14:17;99145.84;;;13.28;76.33
66560;BME280;53413;49.878;8.142;2023-03-23T00:16:48;99143.75;;;13.33;75.99
66560;BME280;53413;49.878;8.142;2023-03-23T00:19:14;99135.78;;;13.34;76.09
66560;BME280;53413;49.878;8.142;2023-03-23T00:21:41;99131.22;;;13.36;76.17
66560;BME280;53413;49.878;8.142;2023-03-23T00:26:38;99122.88;;;13.44;75.66
66560;BME280;53413;49.878;8.142;2023-03-23T00:29:17;99122.69;;;13.47;75.75
66560;BME280;53413;49.878;8.142;2023-03-23T00:31:44;99123.44;;;13.49;75.85
66560;BME280;53413;49.878;8.142;2023-03-23T00:34:15;99129.63;;;13.48;75.92
66560;BME280;53413;49.878;8.142;2023-03-23T00:36:52;99122.78;;;13.46;76.03
66560;BME280;53413;49.878;8.142;2023-03-23T00:39:22;99116.84;;;13.42;76.61
66560;BME280;53413;49.878;8.142;2023-03-23T00:41:49;99119.59;;;13.41;76.87
66560;BME280;53413;49.878;8.142;2023-03-23T00:44:15;99111.03;;;13.37;76.79
66560;BME280;53413;49.878;8.142;2023-03-23T00:46:45;99110.28;;;13.35;76.71
66560;BME280;53413;49.878;8.142;2023-03-23T00:49:15;99116.38;;;13.35;76.51
66560;BME280;53413;49.878;8.142;2023-03-23T00:51:42;99115.34;;;13.38;76.67
66560;BME280;53413;49.878;8.142;2023-03-23T00:54:08;99101.34;;;13.37;76.88
66560;BME280;53413;49.878;8.142;2023-03-23T00:56:34;99120.81;;;13.35;76.62
66560;BME280;53413;49.878;8.142;2023-03-23T00:59:00;99117.63;;;13.30;77.40
66560;BME280;53413;49.878;8.142;2023-03-23T01:01:25;99118.84;;;13.24;78.34
66560;BME280;53413;49.878;8.142;2023-03-23T01:03:51;99117.75;;;13.14;78.64
66560;BME280;53413;49.878;8.142;2023-03-23T01:06:18;99117.28;;;13.07;78.20
66560;BME280;53413;49.878;8.142;2023-03-23T01:08:43;99115.59;;;13.06;79.15
66560;BME280;53413;49.878;8.142;2023-03-23T01:11:14;99117.69;;;13.01;79.68
66560;BME280;53413;49.878;8.142;2023-03-23T01:13:43;99120.63;;;12.96;80.09
66560;BME280;53413;49.878;8.142;2023-03-23T01:16:09;99122.50;;;12.94;80.65
66560;BME280;53413;49.878;8.142;2023-03-23T01:18:35;99125.22;;;12.92;78.68
66560;BME280;53413;49.878;8.142;2023-03-23T01:21:05;99124.19;;;12.95;79.06
66560;BME280;53413;49.878;8.142;2023-03-23T01:23:32;99117.69;;;13.01;78.47
66560;BME280;53413;49.878;8.142;2023-03-23T01:26:02;99105.75;;;13.09;77.86
66560;BME280;53413;49.878;8.142;2023-03-23T01:28:28;99094.00;;;13.15;77.99
66560;BME280;53413;49.878;8.142;2023-03-23T01:30:59;99090.22;;;13.19;77.90
66560;BME280;53413;49.878;8.142;2023-03-23T01:33:24;99097.16;;;13.20;78.41
66560;BME280;53413;49.878;8.142;2023-03-23T01:35:50;99093.59;;;13.21;78.34
66560;BME280;53413;49.878;8.142;2023-03-23T01:38:15;99098.97;;;13.20;79.19
66560;BME280;53413;49.878;8.142;2023-03-23T01:40:41;99092.09;;;13.17;79.45
66560;BME280;53413;49.878;8.142;2023-03-23T01:43:13;99086.19;;;13.14;80.17
66560;BME280;53413;49.878;8.142;2023-03-23T01:45:39;99083.84;;;13.09;80.87
66560;BME280;53413;49.878;8.142;2023-03-23T01:48:32;99083.22;;;13.05;80.93
66560;BME280;53413;49.878;8.142;2023-03-23T01:51:08;99087.06;;;13.00;81.99
66560;BME280;53413;49.878;8.142;2023-03-23T01:53:38;99084.75;;;12.95;82.05
66560;BME280;53413;49.878;8.142;2023-03-23T01:56:06;99086.50;;;12.94;81.38
66560;BME280;53413;49.878;8.142;2023-03-23T01:58:34;99076.75;;;12.97;81.11
66560;BME280;53413;49.878;8.142;2023-03-23T02:01:05;99067.91;;;12.98;81.75
66560;BME280;53413;49.878;8.142;2023-03-23T02:03:34;99080.88;;;13.01;82.74
66560;BME280;53413;49.878;8.142;2023-03-23T02:06:01;99074.75;;;13.00;82.17
66560;BME280;53413;49.878;8.142;2023-03-23T02:08:28;99070.44;;;12.99;83.03
66560;BME280;53413;49.878;8.142;2023-03-23T02:10:54;99070.53;;;12.98;82.92
66560;BME280;53413;49.878;8.142;2023-03-23T02:13:20;99076.56;;;13.00;82.06
66560;BME280;53413;49.878;8.142;2023-03-23T02:15:47;99071.94;;;13.03;81.80
66560;BME280;53413;49.878;8.142;2023-03-23T02:18:30;99069.88;;;13.08;81.39
66560;BME280;53413;49.878;8.142;2023-03-23T02:35:42;99071.28;;;13.00;90.76
66560;BME280;53413;49.878;8.142;2023-03-23T02:38:20;99068.22;;;12.93;91.85
66560;BME280;53413;49.878;8.142;2023-03-23T02:40:49;99070.19;;;12.89;93.26
66560;BME280;53413;49.878;8.142;2023-03-23T02:43:21;99062.59;;;12.85;93.99
66560;BME280;53413;49.878;8.142;2023-03-23T02:45:48;99057.63;;;12.80;95.24
66560;BME280;53413;49.878;8.142;2023-03-23T02:48:17;99065.59;;;12.78;96.35
66560;BME280;53413;49.878;8.142;2023-03-23T02:50:47;99068.53;;;12.74;97.11
66560;BME280;53413;49.878;8.142;2023-03-23T02:53:18;99061.75;;;12.70;98.58
66560;BME280;53413;49.878;8.142;2023-03-23T02:55:46;99047.88;;;12.68;100.00
66560;BME280;53413;49.878;8.142;2023-03-23T02:58:14;99050.06;;;12.61;100.00
66560;BME280;53413;49.878;8.142;2023-03-23T03:00:40;99053.69;;;12.58;100.00
66560;BME280;53413;49.878;8.142;2023-03-23T03:03:09;99046.19;;;12.52;100.00
66560;BME280;53413;49.878;8.142;2023-03-23T03:09:01;99047.06;;;12.38;100.00
66560;BME280;53413;49.878;8.142;2023-03-23T03:11:29;99048.94;;;12.36;100.00
66560;BME280;53413;49.878;8.142;2023-03-23T03:14:05;99045.44;;;12.36;100.00
66560;BME280;53413;49.878;8.142;2023-03-23T03:19:55;99035.50;;;12.41;100.00
66560;BME280;53413;49.878;8.142;2023-03-23T03:22:24;99043.28;;;12.42;100.00
66560;BME280;53413;49.878;8.142;2023-03-23T03:24:55;99044.22;;;12.41;100.00
66560;BME280;53413;49.878;8.142;2023-03-23T03:27:22;99050.88;;;12.47;100.00
66560;BME280;53413;49.878;8.142;2023-03-23T03:29:53;99049.94;;;12.48;100.00
66560;BME280;53413;49.878;8.142;2023-03-23T03:32:22;99048.19;;;12.49;100.00
66560;BME280;53413;49.878;8.142;2023-03-23T03:34:49;99045.56;;;12.49;100.00
66560;BME280;53413;49.878;8.142;2023-03-23T03:37:16;99035.13;;;12.47;100.00
66560;BME280;53413;49.878;8.142;2023-03-23T03:39:41;99030.91;;;12.44;100.00
66560;BME280;53413;49.878;8.142;2023-03-23T03:42:06;99041.31;;;12.46;100.00
66560;BME280;53413;49.878;8.142;2023-03-23T03:44:33;99045.63;;;12.47;100.00
66560;BME280;53413;49.878;8.142;2023-03-23T03:46:58;99051.09;;;12.44;100.00
66560;BME280;53413;49.878;8.142;2023-03-23T03:49:24;99047.78;;;12.40;100.00
66560;BME280;53413;49.878;8.142;2023-03-23T03:51:50;99056.72;;;12.38;100.00
66560;BME280;53413;49.878;8.142;2023-03-23T03:54:16;99056.81;;;12.36;100.00
66560;BME280;53413;49.878;8.142;2023-03-23T03:56:41;99060.28;;;12.37;100.00
66560;BME280;53413;49.878;8.142;2023-03-23T03:59:08;99057.75;;;12.35;100.00
66560;BME280;53413;49.878;8.142;2023-03-23T04:01:36;99062.34;;;12.31;100.00
66560;BME280;53413;49.878;8.142;2023-03-23T04:04:02;99066.00;;;12.29;100.00
66560;BME280;53413;49.878;8.142;2023-03-23T04:06:28;99065.44;;;12.24;100.00
66560;BME280;53413;49.878;8.142;2023-03-23T04:08:56;99062.88;;;12.22;100.00
66560;BME280;53413;49.878;8.142;2023-03-23T04:11:21;99062.06;;;12.22;100.00
66560;BME280;53413;49.878;8.142;2023-03-23T04:13:47;99073.31;;;12.24;100.00
66560;BME280;53413;49.878;8.142;2023-03-23T04:16:12;99079.22;;;12.27;100.00
66560;BME280;53413;49.878;8.142;2023-03-23T04:18:38;99071.81;;;12.34;100.00
66560;BME280;53413;49.878;8.142;2023-03-23T04:21:04;99060.09;;;12.40;100.00
66560;BME280;53413;49.878;8.142;2023-03-23T04:23:32;99070.44;;;12.43;100.00
66560;BME280;53413;49.878;8.142;2023-03-23T04:25:59;99074.75;;;12.44;100.00
66560;BME280;53413;49.878;8.142;2023-03-23T04:28:25;99076.50;;;12.43;100.00
66560;BME280;53413;49.878;8.142;2023-03-23T04:30:52;99087.03;;;12.43;100.00
66560;BME280;53413;49.878;8.142;2023-03-23T04:33:22;99082.63;;;12.44;100.00
66560;BME280;53413;49.878;8.142;2023-03-23T04:35:50;99080.00;;;12.44;100.00
66560;BME280;53413;49.878;8.142;2023-03-23T04:38:17;99083.56;;;12.43;100.00
66560;BME280;53413;49.878;8.142;2023-03-23T04:40:46;99080.00;;;12.44;100.00
66560;BME280;53413;49.878;8.142;2023-03-23T04:43:11;99085.25;;;12.44;100.00
66560;BME280;53413;49.878;8.142;2023-03-23T04:45:38;99082.41;;;12.47;100.00
66560;BME280;53413;49.878;8.142;2023-03-23T04:48:07;99073.59;;;12.48;100.00
66560;BME280;53413;49.878;8.142;2023-03-23T04:50:34;99078.03;;;12.47;100.00
66560;BME280;53413;49.878;8.142;2023-03-23T04:53:01;99073.59;;;12.48;100.00
66560;BME280;53413;49.878;8.142;2023-03-23T04:55:35;99081.47;;;12.48;100.00
66560;BME280;53413;49.878;8.142;2023-03-23T04:58:04;99070.91;;;12.50;100.00
66560;BME280;53413;49.878;8.142;2023-03-23T05:00:31;99079.91;;;12.45;100.00
66560;BME280;53413;49.878;8.142;2023-03-23T05:02:57;99068.53;;;12.45;100.00
66560;BME280;53413;49.878;8.142;2023-03-23T05:05:24;99077.63;;;12.39;100.00
66560;BME280;53413;49.878;8.142;2023-03-23T05:07:50;99074.34;;;12.36;100.00
66560;BME280;53413;49.878;8.142;2023-03-23T05:10:16;99077.25;;;12.31;100.00
66560;BME280;53413;49.878;8.142;2023-03-23T05:12:42;99077.34;;;12.29;100.00
66560;BME280;53413;49.878;8.142;2023-03-23T05:15:10;99075.50;;;12.31;100.00
66560;BME280;53413;49.878;8.142;2023-03-23T05:17:36;99072.94;;;12.30;100.00
66560;BME280;53413;49.878;8.142;2023-03-23T05:20:04;99073.03;;;12.28;100.00
66560;BME280;53413;49.878;8.142;2023-03-23T05:22:32;99078.47;;;12.25;100.00
66560;BME280;53413;49.878;8.142;2023-03-23T05:25:01;99079.50;;;12.23;100.00
66560;BME280;53413;49.878;8.142;2023-03-23T05:27:30;99085.69;;;12.22;100.00
66560;BME280;53413;49.878;8.142;2023-03-23T05:29:58;99092.00;;;12.19;100.00
66560;BME280;53413;49.878;8.142;2023-03-23T05:32:26;99082.59;;;12.15;100.00
66560;BME280;53413;49.878;8.142;2023-03-23T05:34:58;99080.91;;;12.14;100.00
66560;BME280;53413;49.878;8.142;2023-03-23T05:37:25;99096.66;;;12.14;100.00
66560;BME280;53413;49.878;8.142;2023-03-23T05:39:52;99105.56;;;12.11;100.00
66560;BME280;53413;49.878;8.142;2023-03-23T05:42:22;99102.09;;;12.11;100.00
66560;BME280;53413;49.878;8.142;2023-03-23T05:44:49;99099.72;;;12.06;100.00
66560;BME280;53413;49.878;8.142;2023-03-23T05:47:14;99107.88;;;12.01;100.00
66560;BME280;53413;49.878;8.142;2023-03-23T05:49:40;99106.28;;;11.99;100.00
66560;BME280;53413;49.878;8.142;2023-03-23T05:52:05;99118.50;;;12.00;100.00
66560;BME280;53413;49.878;8.142;2023-03-23T05:54:31;99136.66;;;12.03;100.00
66560;BME280;53413;49.878;8.142;2023-03-23T05:56:56;99133.97;;;12.05;100.00
66560;BME280;53413;49.878;8.142;2023-03-23T05:59:22;99130.41;;;12.06;100.00
66560;BME280;53413;49.878;8.142;2023-03-23T06:01:47;99127.78;;;12.06;100.00
66560;BME280;53413;49.878;8.142;2023-03-23T06:04:12;99125.16;;;12.06;100.00
66560;BME280;53413;49.878;8.142;2023-03-23T06:06:39;99116.16;;;12.10;100.00
66560;BME280;53413;49.878;8.142;2023-03-23T06:09:06;99118.69;;;12.11;100.00
66560;BME280;53413;49.878;8.142;2023-03-23T06:11:32;99119.34;;;12.15;100.00
66560;BME280;53413;49.878;8.142;2023-03-23T06:13:57;99125.28;;;12.19;100.00
66560;BME280;53413;49.878;8.142;2023-03-23T06:16:22;99131.19;;;12.22;100.00
66560;BME280;53413;49.878;8.142;2023-03-23T06:18:48;99136.25;;;12.25;100.00
66560;BME280;53413;49.878;8.142;2023-03-23T06:21:14;99140.41;;;12.29;100.00
66560;BME280;53413;49.878;8.142;2023-03-23T06:23:40;99150.91;;;12.29;100.00
66560;BME280;53413;49.878;8.142;2023-03-23T06:26:07;99150.03;;;12.29;100.00
66560;BME280;53413;49.878;8.142;2023-03-23T06:28:33;99159.56;;;12.31;100.00
66560;BME280;53413;49.878;8.142;2023-03-23T06:31:00;99138.34;;;12.35;100.00
66560;BME280;53413;49.878;8.142;2023-03-23T06:33:26;99150.34;;;12.39;100.00
66560;BME280;53413;49.878;8.142;2023-03-23T06:35:52;99156.38;;;12.41;100.00
66560;BME280;53413;49.878;8.142;2023-03-23T06:38:17;99159.66;;;12.44;100.00
66560;BME280;53413;49.878;8.142;2023-03-23T06:40:43;99168.19;;;12.48;100.00
66560;BME280;53413;49.878;8.142;2023-03-23T06:43:12;99163.41;;;12.55;100.00
66560;BME280;53413;49.878;8.142;2023-03-23T06:45:37;99167.19;;;12.65;100.00
66560;BME280;53413;49.878;8.142;2023-03-23T06:48:03;99153.75;;;12.70;100.00
66560;BME280;53413;49.878;8.142;2023-03-23T06:50:28;99152.47;;;12.77;100.00
66560;BME280;53413;49.878;8.142;2023-03-23T06:52:54;99153.00;;;12.82;100.00
66560;BME280;53413;49.878;8.142;2023-03-23T06:55:19;99155.09;;;12.91;100.00
66560;BME280;53413;49.878;8.142;2023-03-23T06:57:45;99158.66;;;13.05;100.00
66560;BME280;53413;49.878;8.142;2023-03-23T07:00:11;99160.06;;;13.11;100.00
66560;BME280;53413;49.878;8.142;2023-03-23T07:02:42;99161.06;;;13.08;100.00
66560;BME280;53413;49.878;8.142;2023-03-23T07:05:08;99168.19;;;13.06;100.00
66560;BME280;53413;49.878;8.142;2023-03-23T07:07:35;99164.63;;;13.07;100.00
66560;BME280;53413;49.878;8.142;2023-03-23T07:10:01;99155.22;;;13.17;100.00
66560;BME280;53413;49.878;8.142;2023-03-23T07:12:27;99150.34;;;13.26;100.00
66560;BME280;53413;49.878;8.142;2023-03-23T07:14:54;99154.06;;;13.36;100.00
66560;BME280;53413;49.878;8.142;2023-03-23T07:17:20;99156.44;;;13.41;100.00
66560;BME280;53413;49.878;8.142;2023-03-23T07:19:45;99160.09;;;13.38;100.00
66560;BME280;53413;49.878;8.142;2023-03-23T07:22:11;99164.97;;;13.30;100.00
66560;BME280;53413;49.878;8.142;2023-03-23T07:24:36;99173.63;;;13.17;100.00
66560;BME280;53413;49.878;8.142;2023-03-23T07:27:01;99179.69;;;13.05;100.00
66560;BME280;53413;49.878;8.142;2023-03-23T07:29:28;99175.72;;;12.98;100.00
66560;BME280;53413;49.878;8.142;2023-03-23T07:31:53;99172.91;;;13.01;100.00
66560;BME280;53413;49.878;8.142;2023-03-23T07:34:19;99165.97;;;13.14;100.00
66560;BME280;53413;49.878;8.142;2023-03-23T07:36:45;99178.53;;;13.23;100.00
66560;BME280;53413;49.878;8.142;2023-03-23T07:39:12;99183.78;;;13.23;100.00
66560;BME280;53413;49.878;8.142;2023-03-23T07:41:38;99180.97;;;13.27;100.00
66560;BME280;53413;49.878;8.142;2023-03-23T07:44:04;99185.84;;;13.33;100.00
66560;BME280;53413;49.878;8.142;2023-03-23T07:46:29;99183.22;;;13.47;100.00
66560;BME280;53413;49.878;8.142;2023-03-23T07:48:55;99188.28;;;13.50;100.00
66560;BME280;53413;49.878;8.142;2023-03-23T07:51:22;99206.34;;;13.42;100.00
66560;BME280;53413;49.878;8.142;2023-03-23T07:53:47;99208.69;;;13.32;100.00
66560;BME280;53413;49.878;8.142;2023-03-23T07:56:14;99208.97;;;13.28;100.00
66560;BME280;53413;49.878;8.142;2023-03-23T07:58:45;99218.19;;;13.20;100.00
66560;BME280;53413;49.878;8.142;2023-03-23T08:01:11;99205.41;;;13.14;100.00
66560;BME280;53413;49.878;8.142;2023-03-23T08:03:37;99208.69;;;13.18;100.00
66560;BME280;53413;49.878;8.142;2023-03-23T08:06:03;99211.03;;;13.22;100.00
66560;BME280;53413;49.878;8.142;2023-03-23T08:08:29;99209.69;;;13.30;100.00
66560;BME280;53413;49.878;8.142;2023-03-23T08:10:55;99213.72;;;13.35;100.00
66560;BME280;53413;49.878;8.142;2023-03-23T08:13:21;99216.28;;;13.37;100.00
66560;BME280;53413;49.878;8.142;2023-03-23T08:15:46;99218.56;;;13.43;100.00
66560;BME280;53413;49.878;8.142;2023-03-23T08:18:11;99223.06;;;13.41;100.00
66560;BME280;53413;49.878;8.142;2023-03-23T08:20:37;99221.63;;;13.35;100.00
66560;BME280;53413;49.878;8.142;2023-03-23T08:23:03;99223.44;;;13.35;100.00
66560;BME280;53413;49.878;8.142;2023-03-23T08:25:29;99233.97;;;13.35;100.00
66560;BME280;53413;49.878;8.142;2023-03-23T08:27:59;99232.16;;;13.35;100.00
66560;BME280;53413;49.878;8.142;2023-03-23T08:30:27;99231.16;;;13.38;100.00
66560;BME280;53413;49.878;8.142;2023-03-23T08:32:56;99234.06;;;13.48;100.00
66560;BME280;53413;49.878;8.142;2023-03-23T08:35:22;99231.50;;;13.61;100.00
66560;BME280;53413;49.878;8.142;2023-03-23T08:37:47;99236.81;;;13.74;100.00
66560;BME280;53413;49.878;8.142;2023-03-23T08:40:18;99240.06;;;13.92;100.00
66560;BME280;53413;49.878;8.142;2023-03-23T08:42:45;99229.69;;;14.03;100.00
66560;BME280;53413;49.878;8.142;2023-03-23T08:45:13;99229.31;;;14.22;100.00
66560;BME280;53413;49.878;8.142;2023-03-23T08:47:40;99226.09;;;14.44;100.00
66560;BME280;53413;49.878;8.142;2023-03-23T08:50:08;99231.81;;;14.64;100.00
66560;BME280;53413;49.878;8.142;2023-03-23T08:52:36;99230.06;;;14.77;100.00
66560;BME280;53413;49.878;8.142;2023-03-23T08:55:02;99229.13;;;14.78;100.00
66560;BME280;53413;49.878;8.142;2023-03-23T08:57:28;99233.13;;;15.10;100.00
66560;BME280;53413;49.878;8.142;2023-03-23T08:59:54;99233.50;;;15.43;100.00
66560;BME280;53413;49.878;8.142;2023-03-23T09:02:22;99235.28;;;15.92;100.00
66560;BME280;53413;49.878;8.142;2023-03-23T09:04:48;99237.94;;;16.52;100.00
66560;BME280;53413;49.878;8.142;2023-03-23T09:07:14;99241.97;;;16.81;99.72
66560;BME280;53413;49.878;8.142;2023-03-23T09:09:40;99241.16;;;17.14;95.21
66560;BME280;53413;49.878;8.142;2023-03-23T09:12:07;99236.47;;;17.41;91.95
66560;BME280;53413;49.878;8.142;2023-03-23T09:14:33;99236.81;;;17.70;91.80
66560;BME280;53413;49.878;8.142;2023-03-23T09:16:59;99239.16;;;17.96;89.65
66560;BME280;53413;49.878;8.142;2023-03-23T09:19:24;99242.53;;;18.09;86.18
66560;BME280;53413;49.878;8.142;2023-03-23T09:21:49;99243.00;;;17.92;87.75
66560;BME280;53413;49.878;8.142;2023-03-23T09:24:15;99252.16;;;17.44;91.31
66560;BME280;53413;49.878;8.142;2023-03-23T09:26:41;99253.72;;;17.23;89.94
66560;BME280;53413;49.878;8.142;2023-03-23T09:29:06;99247.91;;;17.30;90.58
66560;BME280;53413;49.878;8.142;2023-03-23T09:31:31;99250.78;;;17.72;87.77
66560;BME280;53413;49.878;8.142;2023-03-23T09:33:58;99256.13;;;18.16;85.94
66560;BME280;53413;49.878;8.142;2023-03-23T09:36:24;99252.69;;;18.58;84.86
66560;BME280;53413;49.878;8.142;2023-03-23T09:38:51;99252.31;;;18.72;83.39
66560;BME280;53413;49.878;8.142;2023-03-23T09:41:43;99252.25;;;18.41;82.67
66560;BME280;53413;49.878;8.142;2023-03-23T09:47:15;99257.53;;;16.97;85.87
66560;BME280;53413;49.878;8.142;2023-03-23T09:49:52;99274.34;;;16.60;90.15
66560;BME280;53413;49.878;8.142;2023-03-23T09:52:19;99254.78;;;16.27;93.69
66560;BME280;53413;49.878;8.142;2023-03-23T09:54:50;99263.91;;;15.98;94.31
66560;BME280;53413;49.878;8.142;2023-03-23T09:57:31;99274.09;;;15.79;98.11
66560;BME280;53413;49.878;8.142;2023-03-23T10:07:54;99275.50;;;15.59;100.00
66560;BME280;53413;49.878;8.142;2023-03-23T10:10:24;99263.13;;;15.59;100.00
66560;BME280;53413;49.878;8.142;2023-03-23T10:12:56;99270.41;;;15.68;100.00
66560;BME280;53413;49.878;8.142;2023-03-23T10:15:27;99265.06;;;15.57;99.35
66560;BME280;53413;49.878;8.142;2023-03-23T10:20:48;99278.31;;;15.31;100.00
66560;BME280;53413;49.878;8.142;2023-03-23T10:28:51;99284.53;;;15.04;100.00
66560;BME280;53413;49.878;8.142;2023-03-23T10:31:28;99278.31;;;15.05;100.00
66560;BME280;53413;49.878;8.142;2023-03-23T10:33:58;99287.56;;;14.98;100.00
66560;BME280;53413;49.878;8.142;2023-03-23T10:36:33;99275.47;;;15.08;100.00
66560;BME280;53413;49.878;8.142;2023-03-23T10:39:06;99272.56;;;15.37;100.00
66560;BME280;53413;49.878;8.142;2023-03-23T10:41:36;99277.81;;;15.63;100.00
66560;BME280;53413;49.878;8.142;2023-03-23T10:44:09;99289.19;;;15.77;100.00
66560;BME280;53413;49.878;8.142;2023-03-23T10:49:17;99280.09;;;15.81;100.00
66560;BME280;53413;49.878;8.142;2023-03-23T10:51:56;99274.94;;;15.92;99.16
66560;BME280;53413;49.878;8.142;2023-03-23T10:54:32;99271.84;;;16.23;99.23
66560;BME280;53413;49.878;8.142;2023-03-23T10:56:58;99265.00;;;16.56;96.32
66560;BME280;53413;49.878;8.142;2023-03-23T10:59:30;99273.84;;;16.90;92.41
66560;BME280;53413;49.878;8.142;2023-03-23T11:02:00;99270.28;;;17.03;91.34
66560;BME280;53413;49.878;8.142;2023-03-23T11:04:29;99260.59;;;16.79;88.73
66560;BME280;53413;49.878;8.142;2023-03-23T11:06:59;99270.63;;;16.51;91.21
66560;BME280;53413;49.878;8.142;2023-03-23T11:09:39;99273.50;;;16.48;91.49
66560;BME280;53413;49.878;8.142;2023-03-23T11:12:16;99286.84;;;16.22;91.20
66560;BME280;53413;49.878;8.142;2023-03-23T11:14:42;99292.47;;;15.93;94.74
66560;BME280;53413;49.878;8.142;2023-03-23T11:17:39;99294.72;;;15.61;96.41
66560;BME280;53413;49.878;8.142;2023-03-23T11:20:12;99293.59;;;15.39;96.22
66560;BME280;53413;49.878;8.142;2023-03-23T11:22:37;99291.50;;;15.18;96.91
66560;BME280;53413;49.878;8.142;2023-03-23T11:25:05;99293.09;;;14.95;100.00
66560;BME280;53413;49.878;8.142;2023-03-23T11:27:32;99311.31;;;14.72;100.00
66560;BME280;53413;49.878;8.142;2023-03-23T11:32:45;99309.38;;;14.34;100.00
66560;BME280;53413;49.878;8.142;2023-03-23T11:35:20;99310.66;;;14.41;100.00
66560;BME280;53413;49.878;8.142;2023-03-23T11:37:55;99302.44;;;14.46;100.00
66560;BME280;53413;49.878;8.142;2023-03-23T11:40:24;99300.09;;;14.69;100.00
66560;BME280;53413;49.878;8.142;2023-03-23T11:43:13;99299.59;;;14.76;100.00
66560;BME280;53413;49.878;8.142;2023-03-23T11:45:39;99299.63;;;14.62;100.00
66560;BME280;53413;49.878;8.142;2023-03-23T11:53:40;99282.09;;;15.27;100.00
66560;BME280;53413;49.878;8.142;2023-03-23T11:58:38;99283.78;;;15.78;100.00
66560;BME280;53413;49.878;8.142;2023-03-23T12:01:09;99287.50;;;15.76;100.00
66560;BME280;53413;49.878;8.142;2023-03-23T12:03:43;99286.72;;;15.49;100.00
66560;BME280;53413;49.878;8.142;2023-03-23T12:06:13;99279.34;;;15.16;100.00
66560;BME280;53413;49.878;8.142;2023-03-23T12:10:06;99281.78;;;14.93;100.00
66560;BME280;53413;49.878;8.142;2023-03-23T12:14:56;99270.22;;;14.55;100.00
66560;BME280;53413;49.878;8.142;2023-03-23T12:28:38;99234.69;;;15.76;100.00
66560;BME280;53413;49.878;8.142;2023-03-23T12:31:28;99215.53;;;16.45;100.00
66560;BME280;53413;49.878;8.142;2023-03-23T12:34:10;99208.44;;;17.04;99.92
66560;BME280;53413;49.878;8.142;2023-03-23T12:39:33;99218.47;;;17.78;92.69
66560;BME280;53413;49.878;8.142;2023-03-23T12:44:47;99224.44;;;17.36;91.31
66560;BME280;53413;49.878;8.142;2023-03-23T12:47:37;99228.66;;;17.28;93.11
66560;BME280;53413;49.878;8.142;2023-03-23T12:50:14;99222.66;;;17.37;91.93
66560;BME280;53413;49.878;8.142;2023-03-23T12:53:09;99222.34;;;17.63;90.46
66560;BME280;53413;49.878;8.142;2023-03-23T12:55:50;99226.47;;;17.56;89.42
66560;BME280;53413;49.878;8.142;2023-03-23T12:58:29;99232.03;;;17.30;89.12
66560;BME280;53413;49.878;8.142;2023-03-23T13:01:18;99230.47;;;17.04;90.27
66560;BME280;53413;49.878;8.142;2023-03-23T13:03:56;99220.81;;;16.92;91.28
66560;BME280;53413;49.878;8.142;2023-03-23T13:06:28;99226.06;;;16.69;92.17
66560;BME280;53413;49.878;8.142;2023-03-23T13:11:49;99222.97;;;16.28;96.32
66560;BME280;53413;49.878;8.142;2023-03-23T13:14:19;99216.59;;;16.07;98.27
66560;BME280;53413;49.878;8.142;2023-03-23T13:19:50;99221.22;;;15.54;99.64
66560;BME280;53413;49.878;8.142;2023-03-23T13:24:57;99220.25;;;15.05;100.00
66560;BME280;53413;49.878;8.142;2023-03-23T13:27:27;99207.81;;;14.95;100.00
66560;BME280;53413;49.878;8.142;2023-03-23T13:29:55;99213.06;;;14.95;100.00
66560;BME280;53413;49.878;8.142;2023-03-23T13:32:35;99208.94;;;15.16;100.00
66560;BME280;53413;49.878;8.142;2023-03-23T13:35:03;99204.22;;;15.46;100.00
66560;BME280;53413;49.878;8.142;2023-03-23T13:37:32;99194.59;;;15.82;100.00
66560;BME280;53413;49.878;8.142;2023-03-23T13:40:20;99196.00;;;16.23;98.57
66560;BME280;53413;49.878;8.142;2023-03-23T13:42:55;99190.56;;;16.60;96.48
66560;BME280;53413;49.878;8.142;2023-03-23T13:48:23;99201.41;;;16.69;92.24
66560;BME280;53413;49.878;8.142;2023-03-23T13:53:44;99210.03;;;16.48;93.17
66560;BME280;53413;49.878;8.142;2023-03-23T13:56:19;99215.47;;;16.22;95.45
66560;BME280;53413;49.878;8.142;2023-03-23T13:59:49;99224.09;;;15.89;99.45
66560;BME280;53413;49.878;8.142;2023-03-23T14:01:55;99219.13;;;15.47;100.00
66560;BME280;53413;49.878;8.142;2023-03-23T14:04:22;99217.25;;;15.23;100.00
66560;BME280;53413;49.878;8.142;2023-03-23T14:06:50;99222.25;;;15.15;100.00
66560;BME280;53413;49.878;8.142;2023-03-23T14:09:26;99219.81;;;15.12;100.00
66560;BME280;53413;49.878;8.142;2023-03-23T14:11:58;99209.34;;;15.23;100.00
66560;BME280;53413;49.878;8.142;2023-03-23T14:14:44;99223.50;;;15.35;100.00
66560;BME280;53413;49.878;8.142;2023-03-23T14:17:26;99216.84;;;15.29;100.00
66560;BME280;53413;49.878;8.142;2023-03-23T14:19:54;99220.75;;;15.11;100.00
66560;BME280;53413;49.878;8.142;2023-03-23T14:22:26;99218.97;;;14.98;100.00
66560;BME280;53413;49.878;8.142;2023-03-23T14:24:59;99219.22;;;14.95;100.00
66560;BME280;53413;49.878;8.142;2023-03-23T14:27:26;99215.31;;;15.01;100.00
66560;BME280;53413;49.878;8.142;2023-03-23T14:29:59;99212.03;;;14.97;100.00
66560;BME280;53413;49.878;8.142;2023-03-23T14:32:27;99217.31;;;14.97;100.00
66560;BME280;53413;49.878;8.142;2023-03-23T14:34:54;99213.50;;;15.01;100.00